createdAt,value
2018-09-19T00:01:04.482Z,100.00
2018-09-19T00:03:34.098Z,100.00
2018-09-19T00:06:03.763Z,100.00
2018-09-19T00:08:33.403Z,100.00
2018-09-19T00:11:03.017Z,100.00
2018-09-19T00:13:32.682Z,100.00
2018-09-19T00:16:02.300Z,100.00
2018-09-19T00:18:31.936Z,100.00
2018-09-19T00:21:01.664Z,100.00
2018-09-19T00:23:31.250Z,100.00
2018-09-19T00:26:00.883Z,100.00
2018-09-19T00:28:30.536Z,100.00
2018-09-19T00:31:00.230Z,100.00
2018-09-19T00:33:29.900Z,100.00
2018-09-19T00:35:59.563Z,100.00
2018-09-19T00:38:29.279Z,100.00
2018-09-19T00:40:59.235Z,100.00
2018-09-19T00:43:28.927Z,100.00
2018-09-19T00:45:58.587Z,100.00
2018-09-19T00:48:28.191Z,100.00
2018-09-19T00:50:57.965Z,100.00
2018-09-19T00:53:27.883Z,100.00
2018-09-19T00:55:57.528Z,100.00
2018-09-19T00:58:27.165Z,100.00
2018-09-19T01:00:57.872Z,100.00
2018-09-19T01:03:27.644Z,100.00
2018-09-19T01:05:57.312Z,100.00
2018-09-19T01:08:27.027Z,100.00
2018-09-19T01:10:56.660Z,100.00
2018-09-19T01:13:26.306Z,100.00
2018-09-19T01:15:55.980Z,100.00
2018-09-19T01:18:25.600Z,100.00
2018-09-19T01:20:55.362Z,100.00
2018-09-19T01:23:25.008Z,100.00
2018-09-19T01:25:55.343Z,100.00
2018-09-19T01:28:25.047Z,100.00
2018-09-19T01:30:54.730Z,100.00
2018-09-19T01:33:24.279Z,100.00
2018-09-19T01:35:53.976Z,100.00
2018-09-19T01:38:23.712Z,100.00
2018-09-19T01:40:53.391Z,100.00
2018-09-19T01:43:22.992Z,100.00
2018-09-19T01:45:52.627Z,100.00
2018-09-19T01:48:22.263Z,100.00
2018-09-19T01:50:51.887Z,100.00
2018-09-19T01:53:21.738Z,100.00
2018-09-19T01:55:51.469Z,100.00
2018-09-19T01:58:21.112Z,100.00
2018-09-19T02:00:50.821Z,100.00
2018-09-19T02:03:20.400Z,100.00
2018-09-19T02:05:50.026Z,100.00
2018-09-19T02:08:19.583Z,100.00
2018-09-19T02:10:49.230Z,100.00
2018-09-19T02:13:18.837Z,100.00
2018-09-19T02:15:48.487Z,100.00
2018-09-19T02:18:21.108Z,100.00
2018-09-19T02:20:50.743Z,100.00
2018-09-19T02:23:20.456Z,100.00
2018-09-19T02:25:50.084Z,100.00
2018-09-19T02:28:19.810Z,100.00
2018-09-19T02:30:49.505Z,100.00
2018-09-19T02:33:19.194Z,100.00
2018-09-19T02:35:48.843Z,100.00
2018-09-19T02:38:18.516Z,100.00
2018-09-19T02:40:48.139Z,100.00
2018-09-19T02:43:17.833Z,100.00
2018-09-19T02:45:47.527Z,100.00
2018-09-19T02:48:17.243Z,100.00
2018-09-19T02:50:46.939Z,100.00
2018-09-19T02:53:16.555Z,100.00
2018-09-19T02:55:46.283Z,100.00
2018-09-19T02:58:15.935Z,100.00
2018-09-19T03:00:45.639Z,100.00
2018-09-19T03:03:15.282Z,100.00
2018-09-19T03:05:44.947Z,100.00
2018-09-19T03:08:14.556Z,100.00
2018-09-19T03:10:44.162Z,100.00
2018-09-19T03:13:13.963Z,100.00
2018-09-19T03:15:43.623Z,100.00
2018-09-19T03:18:13.389Z,100.00
2018-09-19T03:20:42.972Z,100.00
2018-09-19T03:23:12.686Z,100.00
2018-09-19T03:25:42.332Z,100.00
2018-09-19T03:28:12.013Z,100.00
2018-09-19T03:30:41.686Z,100.00
2018-09-19T03:33:11.311Z,100.00
2018-09-19T03:35:40.950Z,100.00
2018-09-19T03:38:10.572Z,100.00
2018-09-19T03:40:40.175Z,100.00
2018-09-19T03:43:09.765Z,100.00
2018-09-19T03:45:39.428Z,100.00
2018-09-19T03:48:09.142Z,100.00
2018-09-19T03:50:38.777Z,100.00
2018-09-19T03:53:08.416Z,100.00
2018-09-19T03:55:38.099Z,100.00
2018-09-19T03:58:07.771Z,100.00
2018-09-19T04:00:37.450Z,100.00
2018-09-19T04:03:07.184Z,100.00
2018-09-19T04:05:36.804Z,100.00
2018-09-19T04:08:06.564Z,100.00
2018-09-19T04:10:36.187Z,100.00
2018-09-19T04:13:06.027Z,100.00
2018-09-19T04:15:35.718Z,100.00
2018-09-19T04:18:05.419Z,100.00
2018-09-19T04:20:35.059Z,100.00
2018-09-19T04:23:04.631Z,100.00
2018-09-19T04:25:34.293Z,100.00
2018-09-19T04:28:03.864Z,100.00
2018-09-19T04:30:33.489Z,100.00
2018-09-19T04:33:03.338Z,100.00
2018-09-19T04:35:33.086Z,100.00
2018-09-19T04:38:02.886Z,100.00
2018-09-19T04:40:32.493Z,100.00
2018-09-19T04:43:02.997Z,100.00
2018-09-19T04:45:32.653Z,100.00
2018-09-19T04:48:02.524Z,100.00
2018-09-19T04:50:32.265Z,100.00
2018-09-19T04:53:01.970Z,100.00
2018-09-19T04:55:32.525Z,100.00
2018-09-19T04:58:02.180Z,100.00
2018-09-19T05:00:32.139Z,100.00
2018-09-19T05:03:01.858Z,100.00
2018-09-19T05:05:31.482Z,100.00
2018-09-19T05:08:01.134Z,100.00
2018-09-19T05:10:30.790Z,100.00
2018-09-19T05:13:00.501Z,100.00
2018-09-19T05:15:30.188Z,100.00
2018-09-19T05:17:59.990Z,100.00
2018-09-19T05:20:29.636Z,100.00
2018-09-19T05:22:59.350Z,100.00
2018-09-19T05:25:29.101Z,100.00
2018-09-19T05:27:58.752Z,100.00
2018-09-19T05:30:28.314Z,100.00
2018-09-19T05:32:57.958Z,100.00
2018-09-19T05:35:27.645Z,100.00
2018-09-19T05:37:57.314Z,100.00
2018-09-19T05:40:27.061Z,100.00
2018-09-19T05:42:56.836Z,100.00
2018-09-19T05:45:26.609Z,100.00
2018-09-19T05:47:56.251Z,100.00
2018-09-19T05:50:26.092Z,100.00
2018-09-19T05:52:56.197Z,100.00
2018-09-19T05:55:26.099Z,100.00
2018-09-19T05:57:55.965Z,100.00
2018-09-19T06:00:25.841Z,100.00
2018-09-19T06:02:55.822Z,100.00
2018-09-19T06:05:25.880Z,100.00
2018-09-19T06:07:56.451Z,100.00
2018-09-19T06:10:26.418Z,100.00
2018-09-19T06:12:56.770Z,100.00
2018-09-19T06:15:26.873Z,100.00
2018-09-19T06:17:56.817Z,100.00
2018-09-19T06:20:26.877Z,100.00
2018-09-19T06:22:56.814Z,100.00
2018-09-19T06:25:26.718Z,100.00
2018-09-19T06:27:56.787Z,100.00
2018-09-19T06:30:26.943Z,100.00
2018-09-19T06:32:56.884Z,100.00
2018-09-19T06:35:27.849Z,100.00
2018-09-19T06:37:57.911Z,100.00
2018-09-19T06:40:28.003Z,99.93
2018-09-19T06:42:57.698Z,99.52
2018-09-19T06:45:31.692Z,97.65
2018-09-19T06:48:01.786Z,97.47
2018-09-19T06:50:32.626Z,95.95
2018-09-19T06:53:02.348Z,95.61
2018-09-19T06:55:32.275Z,94.70
2018-09-19T06:58:02.120Z,93.19
2018-09-19T07:00:32.136Z,94.04
2018-09-19T07:03:02.036Z,91.46
2018-09-19T07:05:32.049Z,92.29
2018-09-19T07:08:01.910Z,91.33
2018-09-19T07:10:33.437Z,90.01
2018-09-19T07:13:03.191Z,89.35
2018-09-19T07:15:33.666Z,88.91
2018-09-19T07:18:03.756Z,87.82
2018-09-19T07:20:34.064Z,88.12
2018-09-19T07:23:04.188Z,85.70
2018-09-19T07:25:34.009Z,85.02
2018-09-19T07:28:03.901Z,85.46
2018-09-19T07:30:33.930Z,86.75
2018-09-19T07:33:08.109Z,84.78
2018-09-19T07:35:38.014Z,86.05
2018-09-19T07:38:07.803Z,84.09
2018-09-19T07:40:37.664Z,83.47
2018-09-19T07:43:07.612Z,83.03
2018-09-19T07:45:37.805Z,83.46
2018-09-19T07:48:07.655Z,81.79
2018-09-19T07:50:38.492Z,81.69
2018-09-19T07:53:08.407Z,81.06
2018-09-19T07:55:42.781Z,81.42
2018-09-19T07:58:12.690Z,80.21
2018-09-19T08:00:43.129Z,79.53
2018-09-19T08:03:12.892Z,79.34
2018-09-19T08:05:42.726Z,78.46
2018-09-19T08:08:14.236Z,77.81
2018-09-19T08:10:44.128Z,78.70
2018-09-19T08:13:13.999Z,76.91
2018-09-19T08:15:44.252Z,77.49
2018-09-19T08:18:14.300Z,76.52
2018-09-19T08:20:44.211Z,75.66
2018-09-19T08:23:15.204Z,75.72
2018-09-19T08:25:45.105Z,74.69
2018-09-19T08:28:15.116Z,74.15
2018-09-19T08:30:46.352Z,74.60
2018-09-19T08:33:16.657Z,72.86
2018-09-19T08:35:46.506Z,71.75
2018-09-19T08:38:16.357Z,71.70
2018-09-19T08:40:46.017Z,70.88
2018-09-19T08:43:15.710Z,69.59
2018-09-19T08:45:45.424Z,69.86
2018-09-19T08:48:15.046Z,70.48
2018-09-19T08:50:45.786Z,69.36
2018-09-19T08:53:15.552Z,69.45
2018-09-19T08:55:45.353Z,69.02
2018-09-19T08:58:15.067Z,69.69
2018-09-19T09:00:51.496Z,69.48
2018-09-19T09:03:21.212Z,69.01
2018-09-19T09:05:50.988Z,68.54
2018-09-19T09:08:20.732Z,68.09
2018-09-19T09:10:50.685Z,66.20
2018-09-19T09:13:20.451Z,67.46
2018-09-19T09:15:50.615Z,65.57
2018-09-19T09:18:20.408Z,65.40
2018-09-19T09:20:54.290Z,64.88
2018-09-19T09:23:24.069Z,65.73
2018-09-19T09:25:53.810Z,65.17
2018-09-19T09:28:23.533Z,64.79
2018-09-19T09:30:53.444Z,64.04
2018-09-19T09:33:23.272Z,63.62
2018-09-19T09:35:53.008Z,63.64
2018-09-19T09:38:22.765Z,63.33
2018-09-19T09:40:52.457Z,64.13
2018-09-19T09:43:22.249Z,65.15
2018-09-19T09:45:52.109Z,65.27
2018-09-19T09:48:21.790Z,65.72
2018-09-19T09:50:51.728Z,66.18
2018-09-19T09:53:21.704Z,66.87
2018-09-19T09:55:51.445Z,65.79
2018-09-19T09:58:21.267Z,65.71
2018-09-19T10:00:51.156Z,66.44
2018-09-19T10:03:20.888Z,66.64
2018-09-19T10:05:50.657Z,67.73
2018-09-19T10:08:20.405Z,67.00
2018-09-19T10:10:50.235Z,66.93
2018-09-19T10:13:20.083Z,66.82
2018-09-19T10:15:49.923Z,67.08
2018-09-19T10:18:19.664Z,66.94
2018-09-19T10:20:55.524Z,66.15
2018-09-19T10:23:30.425Z,65.24
2018-09-19T10:26:04.568Z,64.19
2018-09-19T10:28:35.248Z,64.71
2018-09-19T10:31:05.079Z,64.28
2018-09-19T10:33:34.853Z,64.78
2018-09-19T10:36:04.667Z,63.58
2018-09-19T10:38:34.410Z,62.55
2018-09-19T10:41:04.848Z,63.32
2018-09-19T10:43:34.602Z,62.27
2018-09-19T10:46:04.341Z,62.93
2018-09-19T10:48:34.117Z,60.68
2018-09-19T10:51:03.819Z,60.88
2018-09-19T10:53:33.676Z,60.55
2018-09-19T10:56:03.718Z,61.17
2018-09-19T10:58:33.656Z,60.63
2018-09-19T11:01:03.628Z,60.07
2018-09-19T11:03:33.445Z,60.19
2018-09-19T11:06:03.601Z,60.41
2018-09-19T11:08:33.404Z,58.45
2018-09-19T11:11:03.136Z,57.48
2018-09-19T11:13:32.790Z,56.83
2018-09-19T11:16:02.495Z,58.63
2018-09-19T11:18:32.218Z,56.94
2018-09-19T11:21:01.995Z,57.46
2018-09-19T11:23:31.717Z,55.92
2018-09-19T11:26:01.654Z,57.70
2018-09-19T11:28:31.935Z,57.03
2018-09-19T11:31:01.698Z,57.16
2018-09-19T11:33:31.346Z,57.87
2018-09-19T11:36:01.165Z,57.26
2018-09-19T11:38:30.976Z,58.37
2018-09-19T11:41:00.839Z,57.73
2018-09-19T11:43:31.848Z,56.05
2018-09-19T11:46:02.350Z,55.94
2018-09-19T11:48:32.311Z,54.28
2018-09-19T11:51:02.911Z,53.99
2018-09-19T11:53:32.887Z,53.22
2018-09-19T11:56:02.761Z,53.25
2018-09-19T11:58:32.833Z,52.74
2018-09-19T12:01:03.220Z,53.37
2018-09-19T12:03:33.058Z,51.78
2018-09-19T12:06:07.368Z,53.03
2018-09-19T12:08:37.376Z,52.94
2018-09-19T12:11:09.119Z,53.93
2018-09-19T12:13:38.829Z,54.37
2018-09-19T12:16:08.537Z,54.02
2018-09-19T12:18:38.485Z,53.50
2018-09-19T12:21:07.916Z,53.08
2018-09-19T12:23:38.685Z,53.27
2018-09-19T12:26:08.699Z,53.27
2018-09-19T12:28:39.192Z,54.45
2018-09-19T12:31:13.383Z,54.05
2018-09-19T12:33:44.413Z,54.70
2018-09-19T12:36:14.473Z,54.25
2018-09-19T12:38:46.571Z,55.36
2018-09-19T12:41:21.106Z,54.63
2018-09-19T12:43:51.692Z,54.38
2018-09-19T12:46:21.785Z,55.71
2018-09-19T12:48:52.221Z,55.13
2018-09-19T12:51:23.150Z,54.18
2018-09-19T12:53:55.174Z,54.04
2018-09-19T12:56:25.289Z,53.79
2018-09-19T12:59:00.160Z,53.04
2018-09-19T13:01:31.047Z,52.09
2018-09-19T13:04:01.277Z,51.69
2018-09-19T13:06:31.746Z,51.24
2018-09-19T13:09:01.728Z,50.91
2018-09-19T13:11:31.865Z,51.26
2018-09-19T13:14:03.327Z,50.57
2018-09-19T13:16:39.343Z,51.06
2018-09-19T13:19:09.229Z,51.34
2018-09-19T13:21:38.978Z,50.44
2018-09-19T13:24:09.603Z,50.00
2018-09-19T13:26:39.401Z,49.77
2018-09-19T13:29:09.509Z,49.98
2018-09-19T13:31:40.433Z,50.63
2018-09-19T13:34:17.410Z,49.71
2018-09-19T13:36:49.050Z,50.30
2018-09-19T13:39:19.713Z,50.38
2018-09-19T13:41:49.669Z,49.00
2018-09-19T13:44:20.555Z,48.84
2018-09-19T13:46:51.557Z,49.40
2018-09-19T13:49:31.635Z,49.17
2018-09-19T13:52:01.780Z,49.43
2018-09-19T13:54:31.859Z,49.88
2018-09-19T13:57:03.628Z,49.08
2018-09-19T13:59:33.537Z,49.54
2018-09-19T14:02:04.210Z,49.55
2018-09-19T14:04:34.689Z,48.66
2018-09-19T14:07:04.935Z,48.13
2018-09-19T14:09:36.538Z,48.54
2018-09-19T14:12:06.641Z,49.09
2018-09-19T14:14:41.258Z,48.71
2018-09-19T14:17:11.129Z,48.25
2018-09-19T14:19:41.904Z,48.76
2018-09-19T14:22:16.385Z,48.64
2018-09-19T14:24:50.370Z,48.32
2018-09-19T14:27:25.056Z,48.75
2018-09-19T14:29:54.974Z,49.18
2018-09-19T14:32:25.112Z,48.82
2018-09-19T14:34:55.386Z,49.04
2018-09-19T14:37:27.017Z,49.19
2018-09-19T14:39:57.559Z,49.79
2018-09-19T14:42:28.013Z,49.66
2018-09-19T14:45:02.402Z,49.33
2018-09-19T14:47:32.493Z,48.75
2018-09-19T14:50:02.552Z,48.44
2018-09-19T14:52:34.573Z,49.04
2018-09-19T14:55:06.396Z,49.44
2018-09-19T14:57:36.911Z,48.41
2018-09-19T15:00:08.239Z,49.05
2018-09-19T15:02:45.377Z,48.13
2018-09-19T15:05:16.093Z,47.40
2018-09-19T15:07:47.364Z,47.51
2018-09-19T15:10:18.758Z,47.79
2018-09-19T15:12:49.243Z,47.35
2018-09-19T15:15:23.906Z,47.60
2018-09-19T15:17:59.299Z,47.58
2018-09-19T15:20:31.590Z,48.34
2018-09-19T15:23:02.316Z,47.92
2018-09-19T15:25:32.517Z,46.91
2018-09-19T15:28:03.695Z,48.17
2018-09-19T15:30:37.996Z,48.31
2018-09-19T15:33:08.442Z,47.78
2018-09-19T15:35:38.878Z,47.31
2018-09-19T15:38:13.432Z,48.23
2018-09-19T15:40:49.191Z,47.48
2018-09-19T15:43:19.152Z,47.58
2018-09-19T15:45:55.184Z,48.43
2018-09-19T15:48:26.763Z,47.70
2018-09-19T15:50:57.201Z,48.27
2018-09-19T15:53:31.882Z,47.30
2018-09-19T15:56:09.353Z,46.92
2018-09-19T15:58:46.047Z,47.32
2018-09-19T16:01:24.280Z,45.88
2018-09-19T16:03:55.653Z,47.44
2018-09-19T16:06:26.433Z,46.88
2018-09-19T16:08:59.269Z,47.41
2018-09-19T16:11:31.012Z,46.53
2018-09-19T16:16:53.838Z,47.47
2018-09-19T16:19:25.017Z,47.24
2018-09-19T16:22:01.710Z,48.06
2018-09-19T16:24:37.508Z,48.86
2018-09-19T16:27:09.762Z,48.59
2018-09-19T16:29:40.146Z,49.61
2018-09-19T16:32:10.109Z,49.86
2018-09-19T16:34:41.212Z,48.93
2018-09-19T16:37:13.110Z,48.88
2018-09-19T16:39:49.365Z,48.77
2018-09-19T16:42:23.405Z,49.38
2018-09-19T16:45:01.226Z,49.26
2018-09-19T16:47:36.118Z,49.41
2018-09-19T16:50:12.541Z,49.67
2018-09-19T16:52:44.033Z,50.25
2018-09-19T16:55:20.134Z,51.67
2018-09-19T16:57:58.102Z,50.85
2018-09-19T17:00:28.440Z,52.11
2018-09-19T17:05:52.793Z,53.40
2018-09-19T17:08:27.731Z,53.26
2018-09-19T17:11:06.395Z,53.43
2018-09-19T17:13:44.141Z,53.98
2018-09-19T17:16:15.020Z,54.47
2018-09-19T17:18:48.501Z,54.53
2018-09-19T17:21:26.362Z,54.55
2018-09-19T17:23:59.093Z,55.68
2018-09-19T17:29:08.287Z,57.74
2018-09-19T17:31:40.801Z,56.97
2018-09-19T17:34:17.593Z,57.99
2018-09-19T17:36:48.052Z,60.13
2018-09-19T17:39:19.103Z,60.59
2018-09-19T17:41:49.113Z,60.15
2018-09-19T17:44:19.658Z,60.44
2018-09-19T17:46:49.603Z,61.92
2018-09-19T17:49:19.619Z,61.66
2018-09-19T17:51:49.481Z,62.03
2018-09-19T17:54:19.374Z,61.57
2018-09-19T17:56:49.987Z,63.35
2018-09-19T18:01:54.401Z,63.83
2018-09-19T18:04:32.866Z,65.74
2018-09-19T18:07:02.947Z,65.03
2018-09-19T18:09:33.050Z,67.20
2018-09-19T18:12:02.972Z,67.78
2018-09-19T18:14:32.874Z,68.88
2018-09-19T18:17:02.694Z,69.17
2018-09-19T18:19:32.732Z,70.78
2018-09-19T18:22:02.716Z,69.89
2018-09-19T18:24:33.363Z,70.63
2018-09-19T18:27:03.598Z,71.93
2018-09-19T18:29:33.945Z,71.58
2018-09-19T18:32:03.952Z,71.51
2018-09-19T18:34:33.993Z,71.76
2018-09-19T18:37:03.923Z,71.67
2018-09-19T18:39:33.980Z,72.42
2018-09-19T18:42:04.118Z,73.41
2018-09-19T18:44:34.287Z,72.88
2018-09-19T18:47:04.196Z,72.58
2018-09-19T18:49:34.187Z,72.27
2018-09-19T18:52:04.019Z,73.49
2018-09-19T18:54:33.886Z,72.16
2018-09-19T18:57:04.545Z,71.07
2018-09-19T18:59:34.763Z,69.48
2018-09-19T19:02:04.670Z,70.23
2018-09-19T19:04:38.555Z,69.62
2018-09-19T19:07:08.368Z,68.01
2018-09-19T19:09:38.187Z,69.21
2018-09-19T19:12:08.122Z,69.90
2018-09-19T19:14:37.991Z,70.77
2018-09-19T19:17:07.794Z,70.29
2018-09-19T19:19:37.612Z,70.77
2018-09-19T19:22:07.551Z,69.79
2018-09-19T19:24:37.316Z,71.27
2018-09-19T19:27:07.084Z,70.81
2018-09-19T19:29:36.789Z,72.16
2018-09-19T19:32:06.608Z,70.93
2018-09-19T19:34:36.313Z,70.89
2018-09-19T19:37:06.318Z,70.67
2018-09-19T19:39:36.104Z,71.46
2018-09-19T19:42:06.039Z,69.60
2018-09-19T19:44:35.988Z,70.66
2018-09-19T19:47:05.971Z,71.09
2018-09-19T19:49:35.764Z,70.64
2018-09-19T19:52:05.683Z,70.21
2018-09-19T19:54:35.541Z,69.00
2018-09-19T19:57:05.474Z,70.35
2018-09-19T19:59:35.365Z,69.38
2018-09-19T20:02:05.213Z,69.59
2018-09-19T20:04:35.328Z,67.44
2018-09-19T20:07:05.184Z,67.94
2018-09-19T20:09:35.252Z,66.89
2018-09-19T20:12:06.203Z,66.65
2018-09-19T20:14:36.224Z,67.17
2018-09-19T20:17:06.851Z,68.03
2018-09-19T20:19:37.049Z,68.83
2018-09-19T20:22:10.671Z,69.71
2018-09-19T20:24:40.919Z,69.70
2018-09-19T20:27:10.850Z,70.82
2018-09-19T20:29:40.892Z,70.89
2018-09-19T20:32:10.969Z,71.11
2018-09-19T20:34:43.989Z,70.26
2018-09-19T20:37:15.770Z,70.98
2018-09-19T20:39:51.099Z,71.54
2018-09-19T20:42:21.023Z,71.96
2018-09-19T20:44:50.950Z,71.68
2018-09-19T20:47:20.990Z,73.32
2018-09-19T20:49:51.309Z,73.66
2018-09-19T20:52:21.178Z,73.88
2018-09-19T20:54:51.028Z,70.89
2018-09-19T20:57:21.055Z,72.04
2018-09-19T20:59:51.065Z,72.87
2018-09-19T21:02:20.963Z,73.86
2018-09-19T21:04:50.794Z,74.14
2018-09-19T21:07:20.573Z,72.72
2018-09-19T21:09:50.631Z,74.51
2018-09-19T21:12:20.715Z,73.63
2018-09-19T21:14:50.846Z,75.79
2018-09-19T21:17:20.842Z,76.29
2018-09-19T21:19:50.644Z,77.22
2018-09-19T21:22:20.697Z,79.11
2018-09-19T21:24:50.404Z,79.96
2018-09-19T21:27:20.271Z,80.16
2018-09-19T21:29:50.253Z,80.76
2018-09-19T21:32:20.084Z,79.48
2018-09-19T21:34:50.274Z,80.39
2018-09-19T21:37:20.322Z,82.17
2018-09-19T21:39:50.199Z,82.71
2018-09-19T21:42:20.087Z,82.10
2018-09-19T21:44:50.019Z,79.97
2018-09-19T21:47:19.980Z,81.26
2018-09-19T21:49:50.892Z,81.64
2018-09-19T21:52:20.782Z,82.87
2018-09-19T21:54:50.684Z,82.02
2018-09-19T21:57:20.658Z,82.99
2018-09-19T21:59:50.621Z,84.49
2018-09-19T22:02:20.547Z,85.36
2018-09-19T22:04:50.278Z,85.28
2018-09-19T22:07:20.031Z,86.86
2018-09-19T22:09:50.368Z,87.41
2018-09-19T22:12:20.265Z,85.52
2018-09-19T22:14:50.024Z,85.71
2018-09-19T22:17:19.939Z,85.67
2018-09-19T22:19:49.663Z,83.46
2018-09-19T22:22:19.514Z,84.74
2018-09-19T22:24:49.284Z,86.74
2018-09-19T22:27:19.223Z,87.26
2018-09-19T22:29:48.949Z,88.21
2018-09-19T22:32:18.787Z,88.92
2018-09-19T22:34:48.613Z,89.90
2018-09-19T22:37:18.461Z,89.67
2018-09-19T22:39:48.303Z,89.47
2018-09-19T22:42:18.020Z,89.16
2018-09-19T22:44:47.850Z,89.84
2018-09-19T22:47:17.653Z,89.69
2018-09-19T22:49:47.509Z,89.53
2018-09-19T22:52:17.359Z,90.45
2018-09-19T22:54:47.266Z,90.26
2018-09-19T22:57:17.175Z,91.08
2018-09-19T22:59:47.955Z,91.62
2018-09-19T23:02:17.870Z,90.75
2018-09-19T23:04:47.704Z,91.37
2018-09-19T23:07:17.487Z,92.26
2018-09-19T23:09:47.287Z,92.05
2018-09-19T23:12:17.136Z,92.54
2018-09-19T23:14:47.125Z,92.81
2018-09-19T23:17:17.072Z,92.44
2018-09-19T23:19:47.078Z,92.63
2018-09-19T23:22:17.755Z,94.12
2018-09-19T23:24:48.407Z,93.23
2018-09-19T23:27:18.415Z,94.91
2018-09-19T23:29:48.931Z,95.53
2018-09-19T23:32:25.505Z,94.71
2018-09-19T23:34:55.537Z,95.42
2018-09-19T23:37:25.509Z,96.72
2018-09-19T23:39:56.253Z,96.05
2018-09-19T23:42:26.043Z,96.77
2018-09-19T23:44:55.856Z,97.80
2018-09-19T23:47:25.617Z,95.95
2018-09-19T23:49:55.542Z,98.09
2018-09-19T23:52:25.400Z,97.29
2018-09-19T23:54:55.147Z,97.45
2018-09-19T23:57:25.076Z,97.32
2018-09-19T23:59:54.951Z,98.43
